^^
Your Local Weather - Clay, NY Station Historical Data
Daily Summary for February 5, 2018 Units:  Metric    English   Both
« Previous Day
Next Day »
Daily Weekly Monthly Yearly Custom
  High: Low: Average:
Temperature: 0 °C -14.3 °C -7.9 °C
Dew Point: -1 °C -17.3 °C -11.4 °C
Humidity: 93% 55% 76%
Wind Speed: 11.3km/h 0km/h 4.2km/h
Wind Gust: 19.3km/h - -
Wind- - WNW
Pressure: 1023.2 hPa 1003.9 hPa -
Precipitation: 0 mm    
Historical Graphs
 
 
Tabular Data for February 5, 2018
Time Temperature Dew Point Pressure Wind Wind Speed Wind Gust Humidity Rainfall Rate (Hourly) solar
00:04 -1.1 °C -2.1 °C 1003.9 hPa Calm     93% 0 mm 0 W/m2
00:10 -1.1 °C -2.1 °C 1003.9 hPa Calm     93% 0 mm 0 W/m2
00:16 -1.1 °C -2.1 °C 1003.9 hPa Calm     93% 0 mm 0 W/m2
00:22 -1.1 °C -2.1 °C 1003.9 hPa Calm     93% 0 mm 0 W/m2
00:28 -1 °C -2 °C 1003.9 hPa Calm     93% 0 mm 0 W/m2
00:34 -1 °C -2 °C 1003.9 hPa Calm     93% 0 mm 0 W/m2
00:40 -0.9 °C -1.9 °C 1003.9 hPa Calm     93% 0 mm 0 W/m2
00:46 -1 °C -2 °C 1003.9 hPa Calm     93% 0 mm 0 W/m2
00:52 -0.9 °C -1.9 °C 1003.9 hPa Calm     93% 0 mm 0 W/m2
00:58 -0.9 °C -1.9 °C 1003.9 hPa Calm     93% 0 mm 0 W/m2
01:04 -0.9 °C -1.9 °C 1003.9 hPa Calm     93% 0 mm 0 W/m2
01:10 -0.9 °C -1.9 °C 1004.3 hPa Calm     93% 0 mm 0 W/m2
01:16 -0.7 °C -1.7 °C 1004.3 hPa Calm     93% 0 mm 0 W/m2
01:22 -0.4 °C -1.4 °C 1004.3 hPa Calm     93% 0 mm 0 W/m2
01:28 -0.2 °C -1.2 °C 1004.3 hPa Calm     93% 0 mm 0 W/m2
01:34 -0.1 °C -1.1 °C 1004.3 hPa Calm     93% 0 mm 0 W/m2
01:40 0 °C -1 °C 1004.6 hPa Calm     93% 0 mm 0 W/m2
01:46 0 °C -1 °C 1004.6 hPa Calm   3.2 km/h 93% 0 mm 0 W/m2
01:52 -0.6 °C -1.6 °C 1005 hPa NW 4.8 km/h 9.7 km/h 93% 0 mm 0 W/m2
01:58 -1 °C -2 °C 1005 hPa West 8 km/h 11.3 km/h 93% 0 mm 0 W/m2
02:04 -1.3 °C -2.3 °C 1005.3 hPa WNW 8 km/h 12.9 km/h 93% 0 mm 0 W/m2
02:10 -1.6 °C -2.6 °C 1005.6 hPa WNW 6.4 km/h 6.4 km/h 93% 0 mm 0 W/m2
02:16 -1.8 °C -2.8 °C 1005.6 hPa NW 6.4 km/h 6.4 km/h 93% 0 mm 0 W/m2
02:22 -1.9 °C -2.9 °C 1005.6 hPa NW 6.4 km/h 9.7 km/h 93% 0 mm 0 W/m2
02:28 -2 °C -3 °C 1006 hPa West 6.4 km/h 9.7 km/h 93% 0 mm 0 W/m2
02:34 -2.2 °C -3.3 °C 1006 hPa NW 6.4 km/h 6.4 km/h 92% 0 mm 0 W/m2
02:40 -2.3 °C -3.3 °C 1006.3 hPa West 6.4 km/h 8 km/h 93% 0 mm 0 W/m2
02:46 -2.4 °C -3.5 °C 1006.7 hPa WNW 6.4 km/h 8 km/h 92% 0 mm 0 W/m2
02:52 -2.6 °C -3.7 °C 1006.7 hPa WNW 6.4 km/h 12.9 km/h 92% 0 mm 0 W/m2
02:58 -2.7 °C -3.8 °C 1007 hPa WNW 6.4 km/h 12.9 km/h 92% 0 mm 0 W/m2
03:04 -2.8 °C -3.9 °C 1007 hPa WNW 6.4 km/h 9.7 km/h 92% 0 mm 0 W/m2
03:10 -2.9 °C -4.1 °C 1007.3 hPa WNW 6.4 km/h 8 km/h 92% 0 mm 0 W/m2
03:16 -3.1 °C -4.2 °C 1007.3 hPa WNW 6.4 km/h 8 km/h 92% 0 mm 0 W/m2
03:22 -3.2 °C -4.3 °C 1007.7 hPa WNW 6.4 km/h 16.1 km/h 92% 0 mm 0 W/m2
03:28 -3.4 °C -4.7 °C 1008 hPa West 8 km/h 16.1 km/h 91% 0 mm 0 W/m2
03:34 -3.7 °C -4.9 °C 1008 hPa WNW 9.7 km/h 11.3 km/h 91% 0 mm 0 W/m2
03:40 -3.9 °C -5.2 °C 1008 hPa WNW 9.7 km/h 14.5 km/h 91% 0 mm 0 W/m2
03:46 -4.2 °C -5.6 °C 1008.4 hPa West 9.7 km/h 14.5 km/h 90% 0 mm 0 W/m2
03:54 -4.4 °C -5.8 °C 1008.7 hPa West 9.7 km/h 9.7 km/h 90% 0 mm 0 W/m2
04:00 -4.4 °C -5.8 °C 1008.7 hPa WNW 8 km/h 11.3 km/h 90% 0 mm 0 W/m2
04:06 -4.6 °C -6 °C 1009 hPa WNW 8 km/h 14.5 km/h 90% 0 mm 0 W/m2
04:12 -4.8 °C -6.2 °C 1009.4 hPa WNW 8 km/h 11.3 km/h 90% 0 mm 0 W/m2
04:18 -4.9 °C -6.3 °C 1009.7 hPa NW 6.4 km/h 11.3 km/h 90% 0 mm 0 W/m2
04:24 -5.1 °C -6.5 °C 1009.7 hPa WNW 8 km/h 14.5 km/h 90% 0 mm 0 W/m2
04:30 -5.2 °C -6.6 °C 1009.7 hPa West 8 km/h 8 km/h 90% 0 mm 0 W/m2
04:36 -5.4 °C -6.9 °C 1010 hPa West 8 km/h 16.1 km/h 89% 0 mm 0 W/m2
04:42 -5.5 °C -7 °C 1010.4 hPa NW 8 km/h 12.9 km/h 89% 0 mm 0 W/m2
04:48 -5.6 °C -7.1 °C 1010.4 hPa WNW 8 km/h 12.9 km/h 89% 0 mm 0 W/m2
04:54 -5.8 °C -7.3 °C 1010.7 hPa NW 8 km/h 14.5 km/h 89% 0 mm 0 W/m2
05:00 -6 °C -7.5 °C 1010.7 hPa WNW 6.4 km/h 6.4 km/h 89% 0 mm 0 W/m2
05:06 -6.1 °C -7.6 °C 1011.1 hPa NW 6.4 km/h 9.7 km/h 89% 0 mm 0 W/m2
05:12 -6.2 °C -7.6 °C 1011.4 hPa West 6.4 km/h 11.3 km/h 90% 0 mm 0 W/m2
05:18 -6.3 °C -7.7 °C 1011.4 hPa WNW 6.4 km/h 11.3 km/h 90% 0 mm 0 W/m2
05:24 -6.4 °C -7.8 °C 1011.7 hPa NW 6.4 km/h 11.3 km/h 90% 0 mm 0 W/m2
05:30 -6.5 °C -7.9 °C 1012.1 hPa WNW 6.4 km/h 6.4 km/h 90% 0 mm 0 W/m2
05:36 -6.6 °C -8 °C 1012.1 hPa WNW 6.4 km/h 8 km/h 90% 0 mm 0 W/m2
05:42 -6.7 °C -8.1 °C 1012.4 hPa WNW 8 km/h 8 km/h 90% 0 mm 0 W/m2
05:48 -6.7 °C -8.1 °C 1012.4 hPa NW 8 km/h 9.7 km/h 90% 0 mm 0 W/m2
05:54 -6.8 °C -8.2 °C 1012.4 hPa West 6.4 km/h 9.7 km/h 90% 0 mm 0 W/m2
06:00 -6.9 °C -8.3 °C 1012.8 hPa WNW 6.4 km/h 12.9 km/h 90% 0 mm 0 W/m2
06:06 -6.9 °C -8.4 °C 1013.1 hPa NW 6.4 km/h 12.9 km/h 89% 0 mm 0 W/m2
06:12 -7.1 °C -8.6 °C 1013.1 hPa WNW 6.4 km/h 8 km/h 89% 0 mm 0 W/m2
06:18 -7.2 °C -8.7 °C 1013.4 hPa NW 6.4 km/h 8 km/h 89% 0 mm 0 W/m2
06:24 -7.2 °C -8.7 °C 1013.8 hPa NNW 6.4 km/h 6.4 km/h 89% 0 mm 0 W/m2
06:30 -7.2 °C -8.7 °C 1013.8 hPa WNW 6.4 km/h 8 km/h 89% 0 mm 0 W/m2
06:36 -7.3 °C -8.8 °C 1014.1 hPa NW 4.8 km/h 8 km/h 89% 0 mm 0 W/m2
06:42 -7.4 °C -8.9 °C 1014.1 hPa West 6.4 km/h 9.7 km/h 89% 0 mm 0 W/m2
06:48 -7.6 °C -9.2 °C 1014.4 hPa West 8 km/h 12.9 km/h 88% 0 mm 0 W/m2
06:54 -7.7 °C -9.3 °C 1014.8 hPa NW 8 km/h 8 km/h 88% 0 mm 0 W/m2
07:00 -7.8 °C -9.6 °C 1015.1 hPa WNW 4.8 km/h 8 km/h 87% 0 mm 0 W/m2
07:06 -7.9 °C -9.9 °C 1015.5 hPa West 6.4 km/h 8 km/h 86% 0 mm 0 W/m2
07:12 -8.1 °C -10.2 °C 1015.8 hPa WNW 9.7 km/h 9.7 km/h 85% 0 mm 0 W/m2
07:18 -8.2 °C -10.6 °C 1015.8 hPa West 8 km/h 9.7 km/h 83% 0 mm 0 W/m2
07:24 -8.3 °C -11 °C 1016.1 hPa West 6.4 km/h 8 km/h 81% 0 mm 0 W/m2
07:30 -8.4 °C -11.3 °C 1016.5 hPa WNW 6.4 km/h 6.4 km/h 80% 0 mm 5 W/m2
07:36 -8.6 °C -11.4 °C 1016.8 hPa NW 8 km/h 9.7 km/h 80% 0 mm 5 W/m2
07:42 -8.6 °C -11.6 °C 1016.8 hPa WNW 8 km/h 11.3 km/h 79% 0 mm 7 W/m2
07:48 -8.7 °C -11.7 °C 1017.2 hPa WNW 8 km/h 11.3 km/h 79% 0 mm 11 W/m2
07:54 -8.8 °C -11.9 °C 1017.2 hPa NW 8 km/h 17.7 km/h 78% 0 mm 14 W/m2
08:00 -8.9 °C -12.1 °C 1017.5 hPa West 9.7 km/h 9.7 km/h 78% 0 mm 18 W/m2
08:06 -9 °C -12.1 °C 1017.8 hPa WNW 8 km/h 9.7 km/h 78% 0 mm 21 W/m2
08:12 -9.1 °C -12.2 °C 1017.8 hPa WNW 8 km/h 9.7 km/h 78% 0 mm 21 W/m2
08:18 -9.1 °C -12.2 °C 1018.2 hPa WNW 6.4 km/h 9.7 km/h 78% 0 mm 26 W/m2
08:24 -9.2 °C -12.7 °C 1018.5 hPa WNW 4.8 km/h 11.3 km/h 76% 0 mm 30 W/m2
08:30 -9.3 °C -12.7 °C 1018.5 hPa NW 6.4 km/h 6.4 km/h 76% 0 mm 39 W/m2
08:36 -9.3 °C -12.9 °C 1018.5 hPa NW 6.4 km/h 11.3 km/h 75% 0 mm 28 W/m2
08:42 -9.3 °C -12.8 °C 1018.8 hPa WNW 4.8 km/h 6.4 km/h 76% 0 mm 46 W/m2
08:48 -9.4 °C -13 °C 1018.8 hPa NW 4.8 km/h 6.4 km/h 75% 0 mm 42 W/m2
08:54 -9.4 °C -13.1 °C 1018.8 hPa WNW 6.4 km/h 11.3 km/h 75% 0 mm 53 W/m2
09:00 -9.4 °C -13.1 °C 1019.2 hPa NW 6.4 km/h 6.4 km/h 75% 0 mm 100 W/m2
09:06 -9.2 °C -12.8 °C 1019.2 hPa WNW 6.4 km/h 8 km/h 75% 0 mm 83 W/m2
09:12 -9.2 °C -13.1 °C 1019.2 hPa WNW 6.4 km/h 6.4 km/h 73% 0 mm 49 W/m2
09:18 -9.3 °C -13.4 °C 1019.5 hPa WNW 6.4 km/h 6.4 km/h 72% 0 mm 102 W/m2
09:24 -9.2 °C -13.3 °C 1019.5 hPa NW 6.4 km/h 12.9 km/h 72% 0 mm 98 W/m2
09:30 -9.2 °C -13.7 °C 1019.5 hPa North 8 km/h 8 km/h 70% 0 mm 42 W/m2
09:36 -9.2 °C -13.6 °C 1019.5 hPa NW 8 km/h 9.7 km/h 70% 0 mm 102 W/m2
09:42 -8.9 °C -13.6 °C 1019.5 hPa WNW 6.4 km/h 9.7 km/h 69% 0 mm 100 W/m2
09:48 -8.8 °C -13.6 °C 1019.9 hPa SW 6.4 km/h 11.3 km/h 68% 0 mm 102 W/m2
09:54 -8.6 °C -13.7 °C 1019.9 hPa NW 6.4 km/h 6.4 km/h 67% 0 mm 109 W/m2
10:00 -8.7 °C -14.1 °C 1019.9 hPa WNW 8 km/h 8 km/h 65% 0 mm 111 W/m2
10:06 -8.7 °C -14.4 °C 1020.2 hPa WNW 9.7 km/h 9.7 km/h 63% 0 mm 105 W/m2
10:12 -8.6 °C -14.6 °C 1020.5 hPa NW 8 km/h 9.7 km/h 62% 0 mm 128 W/m2
10:18 -8.7 °C -15.1 °C 1020.5 hPa WNW 9.7 km/h 19.3 km/h 60% 0 mm 63 W/m2
10:24 -8.7 °C -15.1 °C 1020.9 hPa North 9.7 km/h 9.7 km/h 60% 0 mm 40 W/m2
10:30 -8.4 °C -15.1 °C 1021.2 hPa West 9.7 km/h 14.5 km/h 59% 0 mm 118 W/m2
10:36 -8.3 °C -15.3 °C 1021.6 hPa NW 8 km/h 14.5 km/h 57% 0 mm 118 W/m2
10:42 -8.2 °C -15.2 °C 1021.6 hPa West 8 km/h 9.7 km/h 57% 0 mm 111 W/m2
10:48 -8.1 °C -14.9 °C 1021.6 hPa West 8 km/h 19.3 km/h 58% 0 mm 107 W/m2
10:54 -8.3 °C -15.3 °C 1021.6 hPa NW 9.7 km/h 9.7 km/h 57% 0 mm 107 W/m2
11:00 -8.1 °C -14.9 °C 1021.6 hPa WNW 9.7 km/h 9.7 km/h 58% 0 mm 107 W/m2
11:06 -8.1 °C -15.2 °C 1021.9 hPa NW 9.7 km/h 9.7 km/h 57% 0 mm 109 W/m2
11:12 -8.1 °C -15.5 °C 1021.6 hPa WNW 9.7 km/h 9.7 km/h 55% 0 mm 102 W/m2
11:18 -8.1 °C -15.3 °C 1021.9 hPa West 9.7 km/h 11.3 km/h 56% 0 mm 105 W/m2
11:24 -8 °C -15.3 °C 1021.9 hPa West 8 km/h 17.7 km/h 56% 0 mm 102 W/m2
11:30 -7.9 °C -15.2 °C 1022.2 hPa WNW 8 km/h 8 km/h 56% 0 mm 105 W/m2
11:36 -8.1 °C -15.3 °C 1022.2 hPa WNW 8 km/h 8 km/h 56% 0 mm 139 W/m2
11:42 -7.7 °C -14.6 °C 1022.2 hPa WNW 8 km/h 8 km/h 58% 0 mm 236 W/m2
11:48 -6.9 °C -14.1 °C 1022.2 hPa WNW 8 km/h 8 km/h 57% 0 mm 306 W/m2
11:54 -7.7 °C -15.2 °C 1022.2 hPa WNW 9.7 km/h 14.5 km/h 55% 0 mm 281 W/m2
12:00 -8.1 °C -14.7 °C 1022.2 hPa WNW 11.3 km/h 11.3 km/h 59% 0 mm 374 W/m2
12:06 -7.8 °C -14.3 °C 1022.2 hPa WNW 9.7 km/h 12.9 km/h 60% 0 mm 729 W/m2
12:12 -7.1 °C -13.8 °C 1022.2 hPa NW 8 km/h 9.7 km/h 59% 0 mm 772 W/m2
12:18 -7.3 °C -14 °C 1022.2 hPa NW 8 km/h 11.3 km/h 59% 0 mm 536 W/m2
12:24 -7.6 °C -13.7 °C 1022.2 hPa NW 8 km/h 8 km/h 62% 0 mm 311 W/m2
12:30 -7.9 °C -13.6 °C 1022.2 hPa NW 8 km/h 8 km/h 64% 0 mm 281 W/m2
12:36 -8.1 °C -13.7 °C 1022.2 hPa WNW 6.4 km/h 8 km/h 64% 0 mm 311 W/m2
12:42 -7.9 °C -13.3 °C 1022.2 hPa NW 6.4 km/h 11.3 km/h 65% 0 mm 292 W/m2
12:48 -7.8 °C -13.1 °C 1021.9 hPa NW 4.8 km/h 11.3 km/h 66% 0 mm 302 W/m2
12:54 -8.1 °C -13.1 °C 1021.9 hPa NW 4.8 km/h 9.7 km/h 67% 0 mm 287 W/m2
13:00 -7.8 °C -12.5 °C 1021.9 hPa NNW 4.8 km/h 4.8 km/h 69% 0 mm 334 W/m2
13:06 -7.6 °C -12.7 °C 1021.9 hPa NNW 4.8 km/h 4.8 km/h 67% 0 mm 290 W/m2
13:12 -7.7 °C -12.8 °C 1021.9 hPa WNW 3.2 km/h 4.8 km/h 67% 0 mm 271 W/m2
13:18 -7.7 °C -12.6 °C 1021.6 hPa WNW 3.2 km/h 4.8 km/h 68% 0 mm 295 W/m2
13:24 -7.7 °C -12.6 °C 1021.6 hPa WNW 3.2 km/h 4.8 km/h 68% 0 mm 306 W/m2
13:30 -7.8 °C -12.6 °C 1021.6 hPa WSW 3.2 km/h 3.2 km/h 69% 0 mm 267 W/m2
13:36 -7.7 °C -12.4 °C 1021.6 hPa NNW 1.6 km/h 3.2 km/h 69% 0 mm 248 W/m2
13:42 -7.7 °C -12.2 °C 1021.2 hPa WSW 3.2 km/h 4.8 km/h 70% 0 mm 239 W/m2
13:48 -7.7 °C -12.1 °C 1020.9 hPa WSW 1.6 km/h 4.8 km/h 71% 0 mm 214 W/m2
13:54 -7.8 °C -12.2 °C 1020.9 hPa WSW 1.6 km/h 3.2 km/h 71% 0 mm 197 W/m2
14:00 -7.8 °C -12.2 °C 1020.9 hPa WSW 1.6 km/h 1.6 km/h 71% 0 mm 246 W/m2
14:06 -7.3 °C -11.5 °C 1020.9 hPa Calm   3.2 km/h 72% 0 mm 260 W/m2
14:12 -7.4 °C -11.7 °C 1020.9 hPa WNW 1.6 km/h 4.8 km/h 71% 0 mm 248 W/m2
14:18 -7.3 °C -11.3 °C 1020.9 hPa WNW 1.6 km/h 4.8 km/h 73% 0 mm 269 W/m2
14:24 -7.2 °C -11.4 °C 1020.9 hPa WNW 1.6 km/h 3.2 km/h 72% 0 mm 183 W/m2
14:30 -6.9 °C -11.1 °C 1021.2 hPa WNW 3.2 km/h 3.2 km/h 72% 0 mm 619 W/m2
14:36 -6.8 °C -11.5 °C 1021.2 hPa WNW 4.8 km/h 6.4 km/h 69% 0 mm 230 W/m2
14:42 -7.1 °C -11.9 °C 1021.2 hPa WSW 4.8 km/h 4.8 km/h 68% 0 mm 223 W/m2
14:48 -6.8 °C -11.5 °C 1021.2 hPa WNW 4.8 km/h 6.4 km/h 69% 0 mm 380 W/m2
14:54 -6.3 °C -11.4 °C 1021.2 hPa WNW 4.8 km/h 8 km/h 67% 0 mm 288 W/m2
15:00 -6.7 °C -11.9 °C 1020.9 hPa WSW 6.4 km/h 8 km/h 66% 0 mm 369 W/m2
15:06 -6.6 °C -12.3 °C 1021.2 hPa NW 4.8 km/h 8 km/h 64% 0 mm 197 W/m2
15:12 -6.6 °C -11.7 °C 1021.2 hPa SW 4.8 km/h 4.8 km/h 67% 0 mm 492 W/m2
15:18 -5.8 °C -11 °C 1021.2 hPa WSW 3.2 km/h 4.8 km/h 67% 0 mm 457 W/m2
15:24 -5.9 °C -11.4 °C 1021.2 hPa WSW 3.2 km/h 11.3 km/h 65% 0 mm 193 W/m2
15:30 -6.4 °C -13.3 °C 1021.2 hPa SW 6.4 km/h 8 km/h 58% 0 mm 144 W/m2
15:36 -6.4 °C -13.1 °C 1021.6 hPa West 6.4 km/h 8 km/h 59% 0 mm 148 W/m2
15:42 -6.2 °C -13.1 °C 1021.2 hPa West 3.2 km/h 3.2 km/h 58% 0 mm 362 W/m2
15:48 -5.9 °C -13.1 °C 1021.2 hPa NW 3.2 km/h 3.2 km/h 57% 0 mm 267 W/m2
15:54 -5.7 °C -12.8 °C 1021.2 hPa West 4.8 km/h 8 km/h 57% 0 mm 332 W/m2
16:04 -5.9 °C -13.5 °C 1021.2 hPa WSW 6.4 km/h 6.4 km/h 55% 0 mm 294 W/m2
16:10 -5.9 °C -13.6 °C 1021.2 hPa WSW 6.4 km/h 6.4 km/h 55% 0 mm 58 W/m2
16:16 -6.2 °C -13.8 °C 1021.2 hPa WSW 4.8 km/h 11.3 km/h 55% 0 mm 44 W/m2
16:22 -6.3 °C -13.9 °C 1021.2 hPa West 4.8 km/h 4.8 km/h 55% 0 mm 35 W/m2
16:28 -6.4 °C -14 °C 1021.6 hPa WSW 3.2 km/h 4.8 km/h 55% 0 mm 28 W/m2
16:36 -6.7 °C -14 °C 1021.2 hPa WSW 4.8 km/h 4.8 km/h 56% 0 mm 25 W/m2
16:44 -6.8 °C -14.2 °C 1021.2 hPa SW 4.8 km/h 4.8 km/h 56% 0 mm 21 W/m2
16:50 -6.9 °C -14.3 °C 1021.6 hPa West 3.2 km/h 3.2 km/h 56% 0 mm 19 W/m2
16:56 -7 °C -14.3 °C 1021.6 hPa West 3.2 km/h 4.8 km/h 56% 0 mm 18 W/m2
17:02 -7.1 °C -14.2 °C 1021.6 hPa West 1.6 km/h 1.6 km/h 57% 0 mm 14 W/m2
17:08 -7.3 °C -14.3 °C 1021.6 hPa Calm   1.6 km/h 57% 0 mm 12 W/m2
17:14 -7.4 °C -14.3 °C 1021.6 hPa Calm     58% 0 mm 9 W/m2
17:20 -7.7 °C -14.3 °C 1021.6 hPa Calm     59% 0 mm 7 W/m2
17:26 -7.8 °C -14.4 °C 1022.2 hPa Calm     59% 0 mm 0 W/m2
17:32 -7.9 °C -14.3 °C 1022.2 hPa Calm     60% 0 mm 0 W/m2
17:38 -8.2 °C -14.4 °C 1022.2 hPa Calm     61% 0 mm 0 W/m2
17:44 -8.6 °C -14.7 °C 1022.2 hPa Calm     61% 0 mm 0 W/m2
17:50 -9.1 °C -14.8 °C 1022.2 hPa Calm     63% 0 mm 0 W/m2
17:56 -9.6 °C -14.9 °C 1022.2 hPa Calm     65% 0 mm 0 W/m2
18:02 -10.1 °C -15.3 °C 1022.2 hPa Calm     66% 0 mm 0 W/m2
18:08 -10.4 °C -15.3 °C 1022.2 hPa Calm     67% 0 mm 0 W/m2
18:14 -10.6 °C -15.3 °C 1022.6 hPa Calm     68% 0 mm 0 W/m2
18:20 -10.8 °C -15.4 °C 1022.6 hPa Calm     69% 0 mm 0 W/m2
18:26 -11 °C -15.4 °C 1022.6 hPa Calm     70% 0 mm 0 W/m2
18:32 -11.3 °C -15.7 °C 1022.6 hPa Calm     70% 0 mm 0 W/m2
18:38 -11.6 °C -15.8 °C 1022.6 hPa Calm     71% 0 mm 0 W/m2
18:44 -11.7 °C -15.9 °C 1022.9 hPa Calm     71% 0 mm 0 W/m2
18:50 -11.9 °C -15.9 °C 1023.2 hPa Calm     72% 0 mm 0 W/m2
18:56 -12.1 °C -16.1 °C 1022.9 hPa Calm     72% 0 mm 0 W/m2
19:02 -12.2 °C -16.1 °C 1022.9 hPa Calm     73% 0 mm 0 W/m2
19:08 -12.4 °C -16.2 °C 1022.9 hPa Calm     73% 0 mm 0 W/m2
19:14 -12.6 °C -16.4 °C 1022.9 hPa Calm     73% 0 mm 0 W/m2
19:20 -12.8 °C -16.7 °C 1023.2 hPa Calm     73% 0 mm 0 W/m2
19:26 -13.1 °C -16.7 °C 1023.2 hPa Calm     74% 0 mm 0 W/m2
19:32 -13.2 °C -16.9 °C 1023.2 hPa Calm     74% 0 mm 0 W/m2
19:38 -13.2 °C -16.7 °C 1022.9 hPa Calm     75% 0 mm 0 W/m2
19:44 -13.3 °C -16.8 °C 1022.9 hPa Calm     75% 0 mm 0 W/m2
19:50 -13.4 °C -16.8 °C 1022.9 hPa Calm     76% 0 mm 0 W/m2
19:56 -13.7 °C -17.1 °C 1022.9 hPa Calm     76% 0 mm 0 W/m2
20:02 -13.9 °C -17.1 °C 1022.9 hPa Calm     77% 0 mm 0 W/m2
20:08 -14.1 °C -17.3 °C 1022.9 hPa Calm     77% 0 mm 0 W/m2
20:14 -14.2 °C -17.3 °C 1022.9 hPa Calm     77% 0 mm 0 W/m2
20:20 -14.3 °C -17.3 °C 1022.9 hPa Calm     78% 0 mm 0 W/m2
20:26 -14.3 °C -17.3 °C 1023.2 hPa Calm     78% 0 mm 0 W/m2
20:32 -14.3 °C -17.1 °C 1023.2 hPa Calm     79% 0 mm 0 W/m2
20:38 -14.2 °C -17.1 °C 1023.2 hPa Calm     79% 0 mm 0 W/m2
20:44 -14.1 °C -16.8 °C 1023.2 hPa Calm     80% 0 mm 0 W/m2
20:52 -14.1 °C -16.8 °C 1022.9 hPa Calm     80% 0 mm 0 W/m2
20:58 -14.1 °C -16.8 °C 1022.9 hPa Calm     80% 0 mm 0 W/m2
21:04 -14.1 °C -16.8 °C 1022.9 hPa Calm     80% 0 mm 0 W/m2
21:10 -13.9 °C -16.7 °C 1023.2 hPa Calm     80% 0 mm 0 W/m2
21:16 -13.9 °C -16.6 °C 1023.2 hPa Calm     80% 0 mm 0 W/m2
21:22 -13.8 °C -16.3 °C 1023.2 hPa Calm     81% 0 mm 0 W/m2
21:28 -13.7 °C -16.3 °C 1023.2 hPa Calm     81% 0 mm 0 W/m2
21:34 -13.6 °C -16.1 °C 1023.2 hPa Calm     81% 0 mm 0 W/m2
21:40 -13.3 °C -15.9 °C 1023.2 hPa Calm     81% 0 mm 0 W/m2
21:46 -13.3 °C -15.8 °C 1023.2 hPa Calm     81% 0 mm 0 W/m2
21:52 -13.3 °C -15.9 °C 1023.2 hPa Calm     81% 0 mm 0 W/m2
21:58 -13.4 °C -15.9 °C 1023.2 hPa Calm     81% 0 mm 0 W/m2
22:04 -13.4 °C -15.9 °C 1023.2 hPa Calm     81% 0 mm 0 W/m2
22:10 -13.4 °C -15.9 °C 1022.9 hPa Calm     82% 0 mm 0 W/m2
22:16 -13.4 °C -15.9 °C 1022.9 hPa Calm     82% 0 mm 0 W/m2
22:22 -13.4 °C -15.9 °C 1022.9 hPa Calm     82% 0 mm 0 W/m2
22:28 -13.4 °C -15.9 °C 1022.9 hPa Calm     82% 0 mm 0 W/m2
22:34 -13.3 °C -15.8 °C 1022.9 hPa Calm     82% 0 mm 0 W/m2
22:40 -12.9 °C -15.2 °C 1022.9 hPa Calm     83% 0 mm 0 W/m2
22:46 -12.4 °C -14.7 °C 1022.9 hPa Calm     83% 0 mm 0 W/m2
22:52 -12.2 °C -14.4 °C 1022.9 hPa Calm     83% 0 mm 0 W/m2
22:58 -12.1 °C -14.4 °C 1022.9 hPa Calm     83% 0 mm 0 W/m2
23:06 -11.9 °C -14.1 °C 1022.9 hPa Calm     84% 0 mm 0 W/m2
23:12 -11.8 °C -14.1 °C 1022.9 hPa Calm     83% 0 mm 0 W/m2
23:18 -11.7 °C -13.8 °C 1022.9 hPa Calm     84% 0 mm 0 W/m2
23:24 -11.6 °C -13.8 °C 1023.2 hPa Calm     84% 0 mm 0 W/m2
23:30 -11.4 °C -13.7 °C 1023.2 hPa Calm     83% 0 mm 0 W/m2
23:36 -11.2 °C -13.6 °C 1022.9 hPa Calm     83% 0 mm 0 W/m2
23:42 -11.1 °C -13.4 °C 1022.9 hPa Calm     83% 0 mm 0 W/m2
23:48 -11.1 °C -13.4 °C 1022.9 hPa Calm     83% 0 mm 0 W/m2
23:54 -11 °C -13.3 °C 1023.2 hPa Calm     83% 0 mm 0 W/m2
Country Meadow, Clay, NY, USA
Compliments of Weather Underground - 2 mb